createdAt,value
2019-05-12T00:00:21.338Z,99491.80
2019-05-12T00:02:50.002Z,99494.31
2019-05-12T00:05:18.867Z,99506.58
2019-05-12T00:07:48.783Z,99506.60
2019-05-12T00:10:20.612Z,99504.05
2019-05-12T00:12:49.201Z,99515.07
2019-05-12T00:15:19.144Z,99510.55
2019-05-12T00:17:48.764Z,99516.84
2019-05-12T00:20:18.255Z,99521.13
2019-05-12T00:22:49.172Z,99523.55
2019-05-12T00:25:18.497Z,99523.31
2019-05-12T00:27:48.515Z,99528.41
2019-05-12T00:30:34.077Z,99522.49
2019-05-12T00:33:08.943Z,99519.80
2019-05-12T00:35:38.077Z,99519.17
2019-05-12T00:38:09.115Z,99515.56
2019-05-12T00:40:39.305Z,99516.09
2019-05-12T00:43:08.692Z,99524.72
2019-05-12T00:45:38.725Z,99526.24
2019-05-12T00:48:09.150Z,99526.83
2019-05-12T00:50:38.568Z,99524.56
2019-05-12T00:53:08.966Z,99525.92
2019-05-12T00:55:38.430Z,99526.33
2019-05-12T00:58:08.202Z,99528.94
2019-05-12T01:00:40.537Z,99535.44
2019-05-12T01:03:08.640Z,99539.16
2019-05-12T01:05:38.320Z,99546.51
2019-05-12T01:08:09.050Z,99546.40
2019-05-12T01:10:39.047Z,99550.30
2019-05-12T01:13:08.689Z,99539.47
2019-05-12T01:15:37.912Z,99541.06
2019-05-12T01:18:09.427Z,99540.06
2019-05-12T01:20:38.890Z,99536.56
2019-05-12T01:23:08.780Z,99538.91
2019-05-12T01:25:39.531Z,99548.34
2019-05-12T01:28:08.425Z,99548.19
2019-05-12T01:30:39.113Z,99543.70
2019-05-12T01:33:08.560Z,99544.56
2019-05-12T01:35:38.733Z,99550.31
2019-05-12T01:38:08.297Z,99546.78
2019-05-12T01:40:39.365Z,99552.16
2019-05-12T01:43:08.812Z,99553.73
2019-05-12T01:45:38.184Z,99554.17
2019-05-12T01:48:08.824Z,99556.42
2019-05-12T01:50:38.555Z,99551.06
2019-05-12T01:53:08.407Z,99560.27
2019-05-12T01:55:38.566Z,99563.72
2019-05-12T01:58:08.451Z,99559.30
2019-05-12T02:00:38.858Z,99556.81
2019-05-12T02:03:09.006Z,99563.38
2019-05-12T02:05:39.834Z,99559.27
2019-05-12T02:08:10.172Z,99559.81
2019-05-12T02:10:39.098Z,99561.63
2019-05-12T02:13:08.216Z,99565.63
2019-05-12T02:15:38.315Z,99570.52
2019-05-12T02:18:09.119Z,99571.15
2019-05-12T02:20:38.138Z,99571.27
2019-05-12T02:23:09.019Z,99578.24
2019-05-12T02:25:38.251Z,99580.47
2019-05-12T02:28:09.172Z,99579.69
2019-05-12T02:30:41.732Z,99586.16
2019-05-12T02:33:07.836Z,99586.20
2019-05-12T02:35:36.601Z,99594.87
2019-05-12T02:38:05.595Z,99597.87
2019-05-12T02:40:35.090Z,99608.97
2019-05-12T02:43:05.324Z,99604.92
2019-05-12T02:45:35.483Z,99605.49
2019-05-12T02:48:05.585Z,99606.89
2019-05-12T02:50:37.535Z,99613.25
2019-05-12T02:53:07.249Z,99615.97
2019-05-12T02:55:36.368Z,99611.22
2019-05-12T02:58:05.892Z,99602.27
2019-05-12T03:00:36.696Z,99605.37
2019-05-12T03:03:14.404Z,99599.39
2019-05-12T03:05:44.240Z,99604.44
2019-05-12T03:08:15.334Z,99602.67
2019-05-12T03:10:45.999Z,99611.44
2019-05-12T03:13:15.071Z,99609.34
2019-05-12T03:15:44.613Z,99606.53
2019-05-12T03:18:14.600Z,99602.10
2019-05-12T03:20:45.464Z,99602.38
2019-05-12T03:23:15.510Z,99607.01
2019-05-12T03:25:45.626Z,99610.30
2019-05-12T03:28:16.011Z,99609.19
2019-05-12T03:30:48.372Z,99607.97
2019-05-12T03:33:19.729Z,99609.31
2019-05-12T03:35:52.194Z,99603.59
2019-05-12T03:38:15.901Z,99610.78
2019-05-12T03:40:45.328Z,99608.09
2019-05-12T03:43:14.769Z,99609.34
2019-05-12T03:45:45.318Z,99611.93
2019-05-12T03:48:15.051Z,99619.47
2019-05-12T03:50:46.085Z,99625.28
2019-05-12T03:53:15.611Z,99624.28
2019-05-12T03:55:46.841Z,99629.13
2019-05-12T03:58:15.482Z,99630.70
2019-05-12T04:00:44.856Z,99629.42
2019-05-12T04:03:15.323Z,99627.25
2019-05-12T04:05:45.270Z,99630.49
2019-05-12T04:08:15.710Z,99634.57
2019-05-12T04:10:45.585Z,99639.77
2019-05-12T04:13:15.196Z,99636.30
2019-05-12T04:15:45.381Z,99634.86
2019-05-12T04:18:15.798Z,99641.31
2019-05-12T04:20:45.355Z,99633.95
2019-05-12T04:23:15.462Z,99635.20
2019-05-12T04:25:52.088Z,99637.70
2019-05-12T04:28:15.176Z,99641.30
2019-05-12T04:30:44.700Z,99642.69
2019-05-12T04:33:15.443Z,99651.29
2019-05-12T04:35:45.106Z,99646.05
2019-05-12T04:38:15.005Z,99646.11
2019-05-12T04:40:45.010Z,99649.45
2019-05-12T04:43:14.731Z,99640.67
2019-05-12T04:45:45.123Z,99645.00
2019-05-12T04:48:15.577Z,99646.23
2019-05-12T04:50:45.249Z,99648.73
2019-05-12T04:53:14.604Z,99652.36
2019-05-12T04:55:44.534Z,99650.55
2019-05-12T04:58:15.650Z,99640.94
2019-05-12T05:00:44.854Z,99645.91
2019-05-12T05:03:14.307Z,99641.18
2019-05-12T05:05:44.459Z,99637.13
2019-05-12T05:08:15.531Z,99641.84
2019-05-12T05:10:44.430Z,99634.68
2019-05-12T05:13:14.917Z,99638.54
2019-05-12T05:15:44.548Z,99637.50
2019-05-12T05:18:13.575Z,99638.23
2019-05-12T05:20:43.796Z,99638.05
2019-05-12T05:23:14.231Z,99640.49
2019-05-12T05:25:43.521Z,99638.84
2019-05-12T05:28:14.344Z,99633.95
2019-05-12T05:30:44.080Z,99634.91
2019-05-12T05:33:14.463Z,99632.81
2019-05-12T05:35:43.544Z,99632.53
2019-05-12T05:38:18.618Z,99634.97
2019-05-12T05:40:43.563Z,99633.71
2019-05-12T05:43:17.479Z,99636.29
2019-05-12T05:45:43.858Z,99630.22
2019-05-12T05:48:13.597Z,99634.76
2019-05-12T05:50:44.836Z,99639.88
2019-05-12T05:53:19.643Z,99637.39
2019-05-12T05:55:50.399Z,99639.05
2019-05-12T05:58:16.723Z,99643.79
2019-05-12T06:00:45.302Z,99643.04
2019-05-12T06:03:22.575Z,99642.97
2019-05-12T06:05:44.287Z,99641.01
2019-05-12T06:08:18.603Z,99641.38
2019-05-12T06:10:43.742Z,99641.09
2019-05-12T06:13:14.368Z,99648.76
2019-05-12T06:15:43.348Z,99649.99
2019-05-12T06:18:13.582Z,99642.97
2019-05-12T06:20:43.717Z,99636.08
2019-05-12T06:23:15.525Z,99637.11
2019-05-12T06:25:51.385Z,99648.27
2019-05-12T06:28:17.330Z,99650.91
2019-05-12T06:30:49.846Z,99649.41
2019-05-12T06:33:16.271Z,99652.50
2019-05-12T06:35:45.439Z,99647.09
2019-05-12T06:38:14.324Z,99639.75
2019-05-12T06:40:45.402Z,99644.19
2019-05-12T06:43:14.185Z,99628.03
2019-05-12T06:45:45.538Z,99631.11
2019-05-12T06:48:14.025Z,99629.13
2019-05-12T06:50:44.173Z,99624.16
2019-05-12T06:53:13.916Z,99623.55
2019-05-12T06:55:43.332Z,99615.48
2019-05-12T06:58:14.017Z,99618.88
2019-05-12T07:00:43.753Z,99619.50
2019-05-12T07:03:14.334Z,99623.88
2019-05-12T07:05:45.206Z,99615.05
2019-05-12T07:08:20.009Z,99615.42
2019-05-12T07:10:46.930Z,99615.51
2019-05-12T07:13:22.494Z,99613.84
2019-05-12T07:15:44.190Z,99614.45
2019-05-12T07:18:17.250Z,99621.36
2019-05-12T07:20:44.720Z,99619.20
2019-05-12T07:23:14.300Z,99620.41
2019-05-12T07:25:44.495Z,99616.52
2019-05-12T07:28:14.445Z,99616.69
2019-05-12T07:30:44.198Z,99613.71
2019-05-12T07:33:14.644Z,99604.31
2019-05-12T07:35:44.541Z,99608.57
2019-05-12T07:38:20.957Z,99596.63
2019-05-12T07:40:46.972Z,99600.48
2019-05-12T07:43:20.490Z,99597.33
2019-05-12T07:45:56.686Z,99594.50
2019-05-12T07:48:19.917Z,99594.32
2019-05-12T07:50:50.236Z,99585.19
2019-05-12T07:53:18.762Z,99586.64
2019-05-12T07:55:49.425Z,99586.84
2019-05-12T07:58:19.300Z,99584.06
2019-05-12T08:00:48.176Z,99583.36
2019-05-12T08:03:21.221Z,99580.45
2019-05-12T08:05:51.310Z,99581.38
2019-05-12T08:08:17.331Z,99573.95
2019-05-12T08:10:51.382Z,99572.14
2019-05-12T08:13:19.060Z,99574.50
2019-05-12T08:15:51.285Z,99572.06
2019-05-12T08:18:18.037Z,99573.14
2019-05-12T08:20:46.582Z,99568.64
2019-05-12T08:23:15.230Z,99564.61
2019-05-12T08:25:43.926Z,99565.48
2019-05-12T08:28:18.790Z,99562.14
2019-05-12T08:30:47.550Z,99562.45
2019-05-12T08:33:14.679Z,99559.39
2019-05-12T08:35:44.008Z,99551.95
2019-05-12T08:38:14.455Z,99551.64
2019-05-12T08:40:48.816Z,99547.98
2019-05-12T08:43:14.868Z,99551.35
2019-05-12T08:45:44.420Z,99553.80
2019-05-12T08:48:21.535Z,99557.92
2019-05-12T08:50:46.041Z,99562.19
2019-05-12T08:53:20.322Z,99567.04
2019-05-12T08:55:44.154Z,99562.30
2019-05-12T08:58:29.737Z,99563.16
2019-05-12T09:00:50.066Z,99563.37
2019-05-12T09:03:14.143Z,99565.15
2019-05-12T09:05:44.605Z,99560.97
2019-05-12T09:08:16.592Z,99558.44
2019-05-12T09:10:45.299Z,99563.63
2019-05-12T09:13:14.498Z,99551.05
2019-05-12T09:15:43.838Z,99551.56
2019-05-12T09:18:14.434Z,99544.78
2019-05-12T09:20:48.720Z,99541.95
2019-05-12T09:23:13.729Z,99534.84
2019-05-12T09:25:45.280Z,99539.80
2019-05-12T09:28:13.769Z,99546.20
2019-05-12T09:30:47.635Z,99540.23
2019-05-12T09:33:14.058Z,99535.07
2019-05-12T09:35:43.724Z,99534.84
2019-05-12T09:38:21.200Z,99524.73
2019-05-12T09:40:43.720Z,99524.50
2019-05-12T09:43:13.775Z,99524.86
2019-05-12T09:45:51.570Z,99519.55
2019-05-12T09:48:15.841Z,99518.56
2019-05-12T09:50:46.522Z,99512.38
2019-05-12T09:53:14.809Z,99521.87
2019-05-12T09:55:46.379Z,99518.78
2019-05-12T09:58:23.078Z,99517.44
2019-05-12T10:00:45.412Z,99509.13
2019-05-12T10:03:14.110Z,99509.53
2019-05-12T10:05:44.233Z,99503.34
2019-05-12T10:08:13.882Z,99508.05
2019-05-12T10:10:46.798Z,99502.56
2019-05-12T10:13:14.789Z,99493.23
2019-05-12T10:15:43.510Z,99487.89
2019-05-12T10:18:14.388Z,99488.99
2019-05-12T10:20:44.145Z,99493.02
2019-05-12T10:23:16.547Z,99492.03
2019-05-12T10:25:44.657Z,99493.98
2019-05-12T10:28:16.095Z,99491.36
2019-05-12T10:30:47.046Z,99480.27
2019-05-12T10:33:14.101Z,99481.89
2019-05-12T10:35:43.854Z,99481.43
2019-05-12T10:38:13.768Z,99477.41
2019-05-12T10:40:44.513Z,99474.83
2019-05-12T10:43:12.968Z,99474.25
2019-05-12T10:45:44.039Z,99464.42
2019-05-12T10:48:13.946Z,99468.53
2019-05-12T10:50:44.114Z,99468.20
2019-05-12T10:53:15.560Z,99464.66
2019-05-12T10:55:44.077Z,99461.06
2019-05-12T10:58:14.521Z,99468.29
2019-05-12T11:00:44.344Z,99458.66
2019-05-12T11:03:15.454Z,99456.75
2019-05-12T11:05:44.145Z,99452.55
2019-05-12T11:08:14.298Z,99448.86
2019-05-12T11:10:43.100Z,99443.74
2019-05-12T11:13:14.018Z,99449.52
2019-05-12T11:15:46.227Z,99449.03
2019-05-12T11:18:13.616Z,99445.69
2019-05-12T11:20:42.250Z,99446.58
2019-05-12T11:23:10.934Z,99438.88
2019-05-12T11:25:39.580Z,99441.53
2019-05-12T11:28:08.322Z,99434.16
2019-05-12T11:30:37.071Z,99433.90
2019-05-12T11:33:05.719Z,99437.50
2019-05-12T11:35:34.825Z,99428.78
2019-05-12T11:38:04.466Z,99436.70
2019-05-12T11:40:36.141Z,99425.47
2019-05-12T11:43:06.301Z,99424.16
2019-05-12T11:45:34.986Z,99421.63
2019-05-12T11:48:09.911Z,99416.60
2019-05-12T11:50:34.572Z,99413.09
2019-05-12T11:53:04.214Z,99420.76
2019-05-12T11:55:34.941Z,99422.14
2019-05-12T11:58:06.836Z,99408.88
2019-05-12T12:00:35.874Z,99425.60
2019-05-12T12:03:12.722Z,99423.56
2019-05-12T12:05:38.127Z,99417.06
2019-05-12T12:08:05.570Z,99405.27
2019-05-12T12:10:37.583Z,99412.11
2019-05-12T12:13:04.504Z,99411.95
2019-05-12T12:15:34.519Z,99411.04
2019-05-12T12:18:12.727Z,99411.62
2019-05-12T12:20:33.981Z,99402.64
2019-05-12T12:23:06.560Z,99401.66
2019-05-12T12:25:34.263Z,99395.30
2019-05-12T12:28:04.381Z,99387.87
2019-05-12T12:30:34.120Z,99390.74
2019-05-12T12:33:04.127Z,99388.23
2019-05-12T12:35:34.513Z,99387.55
2019-05-12T12:38:06.193Z,99390.92
2019-05-12T12:40:34.832Z,99385.73
2019-05-12T12:43:03.976Z,99384.86
2019-05-12T12:45:40.703Z,99380.58
2019-05-12T12:48:09.394Z,99374.67
2019-05-12T12:50:37.878Z,99364.54
2019-05-12T12:53:06.530Z,99358.61
2019-05-12T12:55:37.956Z,99357.50
2019-05-12T12:58:05.641Z,99356.55
2019-05-12T13:00:46.838Z,99353.18
2019-05-12T13:03:04.664Z,99350.62
2019-05-12T13:05:34.540Z,99352.50
2019-05-12T13:08:04.288Z,99353.80
2019-05-12T13:10:33.713Z,99346.71
2019-05-12T13:13:04.136Z,99353.95
2019-05-12T13:15:34.047Z,99354.59
2019-05-12T13:18:02.866Z,99341.80
2019-05-12T13:20:31.457Z,99344.92
2019-05-12T13:22:59.930Z,99338.09
2019-05-12T13:25:28.583Z,99328.43
2019-05-12T13:28:01.457Z,99326.16
2019-05-12T13:30:27.519Z,99330.70
2019-05-12T13:32:56.112Z,99331.02
2019-05-12T13:35:24.800Z,99331.97
2019-05-12T13:37:58.435Z,99337.36
2019-05-12T13:40:23.605Z,99340.59
2019-05-12T13:42:54.312Z,99332.38
2019-05-12T13:45:24.268Z,99332.65
2019-05-12T13:47:53.528Z,99327.09
2019-05-12T13:50:26.272Z,99325.17
2019-05-12T13:52:54.208Z,99321.55
2019-05-12T13:55:25.609Z,99319.05
2019-05-12T13:57:57.781Z,99303.57
2019-05-12T14:00:24.553Z,99304.50
2019-05-12T14:02:57.162Z,99302.96
2019-05-12T14:05:24.140Z,99302.08
2019-05-12T14:07:55.432Z,99307.70
2019-05-12T14:10:24.581Z,99299.15
2019-05-12T14:12:54.350Z,99301.93
2019-05-12T14:15:24.852Z,99292.68
2019-05-12T14:17:54.267Z,99298.00
2019-05-12T14:20:23.931Z,99296.23
2019-05-12T14:22:53.773Z,99301.13
2019-05-12T14:25:29.936Z,99310.47
2019-05-12T14:27:53.708Z,99302.59
2019-05-12T14:30:24.490Z,99317.06
2019-05-12T14:32:55.053Z,99317.58
2019-05-12T14:35:26.163Z,99312.64
2019-05-12T14:37:54.649Z,99317.80
2019-05-12T14:40:29.873Z,99318.19
2019-05-12T14:42:54.410Z,99317.02
2019-05-12T14:45:29.906Z,99319.11
2019-05-12T14:47:59.912Z,99315.67
2019-05-12T14:50:26.839Z,99309.23
2019-05-12T14:52:59.845Z,99300.89
2019-05-12T14:55:28.441Z,99306.00
2019-05-12T14:57:56.954Z,99308.53
2019-05-12T15:00:25.595Z,99312.20
2019-05-12T15:02:54.163Z,99305.83
2019-05-12T15:05:28.286Z,99300.63
2019-05-12T15:08:00.203Z,99317.58
2019-05-12T15:10:27.232Z,99310.67
2019-05-12T15:12:56.013Z,99303.70
2019-05-12T15:15:24.577Z,99297.63
2019-05-12T15:17:56.770Z,99302.78
2019-05-12T15:20:24.058Z,99301.67
2019-05-12T15:22:54.966Z,99293.75
2019-05-12T15:25:23.062Z,99292.37
2019-05-12T15:27:51.634Z,99278.64
2019-05-12T15:30:24.439Z,99270.16
2019-05-12T15:32:50.583Z,99274.69
2019-05-12T15:35:19.147Z,99273.60
2019-05-12T15:37:47.763Z,99264.44
2019-05-12T15:40:16.400Z,99260.86
2019-05-12T15:42:46.138Z,99260.89
2019-05-12T15:45:16.840Z,99255.33
2019-05-12T15:47:45.164Z,99261.37
2019-05-12T15:50:14.941Z,99250.98
2019-05-12T15:52:45.640Z,99260.89
2019-05-12T15:55:17.797Z,99253.16
2019-05-12T15:57:44.875Z,99252.17
2019-05-12T16:00:16.760Z,99254.59
2019-05-12T16:02:44.489Z,99261.09
2019-05-12T16:05:14.598Z,99257.84
2019-05-12T16:07:47.724Z,99255.92
2019-05-12T16:10:16.612Z,99256.91
2019-05-12T16:12:45.252Z,99274.79
2019-05-12T16:15:19.230Z,99264.50
2019-05-12T16:17:44.515Z,99264.50
2019-05-12T16:20:14.408Z,99267.92
2019-05-12T16:22:45.244Z,99268.66
2019-05-12T16:25:15.187Z,99269.37
2019-05-12T16:27:44.803Z,99272.27
2019-05-12T16:30:14.063Z,99273.84
2019-05-12T16:32:47.646Z,99275.55
2019-05-12T16:35:14.534Z,99273.72
2019-05-12T16:37:44.217Z,99269.13
2019-05-12T16:40:14.087Z,99275.76
2019-05-12T16:42:48.101Z,99277.78
2019-05-12T16:45:19.849Z,99281.86
2019-05-12T16:47:46.994Z,99282.56
2019-05-12T16:50:24.040Z,99282.77
2019-05-12T16:52:46.155Z,99282.52
2019-05-12T16:55:14.802Z,99290.36
2019-05-12T16:57:51.271Z,99299.27
2019-05-12T17:00:14.845Z,99296.22
2019-05-12T17:02:52.151Z,99305.12
2019-05-12T17:05:19.776Z,99315.02
2019-05-12T17:07:44.926Z,99315.87
2019-05-12T17:10:16.548Z,99327.86
2019-05-12T17:12:44.073Z,99334.00
2019-05-12T17:15:14.945Z,99330.02
2019-05-12T17:17:44.753Z,99331.49
2019-05-12T17:20:13.979Z,99333.27
2019-05-12T17:22:45.694Z,99333.09
2019-05-12T17:25:15.188Z,99333.48
2019-05-12T17:27:44.869Z,99335.16
2019-05-12T17:30:16.824Z,99340.34
2019-05-12T17:32:58.170Z,99340.55
2019-05-12T17:35:20.346Z,99342.00
2019-05-12T17:37:46.374Z,99339.09
2019-05-12T17:40:19.886Z,99339.16
2019-05-12T17:42:45.796Z,99332.19
2019-05-12T17:45:20.128Z,99335.69
2019-05-12T17:47:45.088Z,99346.67
2019-05-12T17:50:14.080Z,99342.12
2019-05-12T17:52:45.030Z,99346.23
2019-05-12T17:55:15.898Z,99348.23
2019-05-12T17:57:44.563Z,99346.60
2019-05-12T18:00:15.108Z,99347.43
2019-05-12T18:02:44.237Z,99349.59
2019-05-12T18:05:15.557Z,99351.02
2019-05-12T18:07:50.841Z,99356.72
2019-05-12T18:10:17.883Z,99364.14
2019-05-12T18:12:46.521Z,99363.25
2019-05-12T18:15:16.485Z,99368.11
2019-05-12T18:17:49.786Z,99369.94
2019-05-12T18:20:16.301Z,99366.05
2019-05-12T18:22:46.965Z,99366.81
2019-05-12T18:25:21.962Z,99373.80
2019-05-12T18:27:50.803Z,99376.92
2019-05-12T18:30:19.360Z,99384.59
2019-05-12T18:32:48.124Z,99386.70
2019-05-12T18:35:16.776Z,99395.18
2019-05-12T18:37:45.277Z,99393.69
2019-05-12T18:40:14.983Z,99394.39
2019-05-12T18:42:43.510Z,99396.64
2019-05-12T18:45:17.993Z,99399.51
2019-05-12T18:47:44.659Z,99393.16
2019-05-12T18:50:14.091Z,99399.86
2019-05-12T18:52:46.195Z,99403.28
2019-05-12T18:55:13.459Z,99405.38
2019-05-12T18:57:47.973Z,99412.64
2019-05-12T19:00:18.712Z,99416.21
2019-05-12T19:02:50.807Z,99422.45
2019-05-12T19:05:21.902Z,99423.02
2019-05-12T19:07:48.434Z,99433.30
2019-05-12T19:10:17.092Z,99429.44
2019-05-12T19:12:45.789Z,99429.33
2019-05-12T19:15:19.523Z,99428.48
2019-05-12T19:17:45.971Z,99438.39
2019-05-12T19:20:15.120Z,99439.64
2019-05-12T19:22:56.082Z,99439.42
2019-05-12T19:25:19.598Z,99442.65
2019-05-12T19:27:55.167Z,99446.23
2019-05-12T19:30:25.306Z,99454.06
2019-05-12T19:32:54.572Z,99443.94
2019-05-12T19:35:23.488Z,99439.73
2019-05-12T19:37:53.819Z,99451.77
2019-05-12T19:40:22.745Z,99451.77
2019-05-12T19:42:53.688Z,99445.69
2019-05-12T19:45:22.538Z,99445.69
2019-05-12T19:47:53.581Z,99447.24
2019-05-12T19:50:22.414Z,99444.87
2019-05-12T19:52:50.959Z,99441.58
2019-05-12T19:55:20.288Z,99447.83
2019-05-12T19:57:50.180Z,99448.96
2019-05-12T20:00:19.078Z,99447.48
2019-05-12T20:02:47.722Z,99449.85
2019-05-12T20:05:17.638Z,99452.75
2019-05-12T20:07:46.512Z,99453.95
2019-05-12T20:10:16.548Z,99454.58
2019-05-12T20:12:48.736Z,99456.51
2019-05-12T20:15:15.678Z,99454.15
2019-05-12T20:17:45.131Z,99461.93
2019-05-12T20:20:17.714Z,99462.58
2019-05-12T20:22:45.305Z,99467.33
2019-05-12T20:25:14.725Z,99470.24
2019-05-12T20:27:44.674Z,99475.30
2019-05-12T20:30:18.896Z,99472.73
2019-05-12T20:32:44.097Z,99484.60
2019-05-12T20:35:14.594Z,99484.66
2019-05-12T20:37:52.417Z,99487.47
2019-05-12T20:40:14.197Z,99494.24
2019-05-12T20:43:05.333Z,99496.41
2019-05-12T20:45:13.924Z,99501.75
2019-05-12T20:47:45.202Z,99504.58
2019-05-12T20:50:14.671Z,99494.20
2019-05-12T20:52:52.261Z,99494.80
2019-05-12T20:55:16.987Z,99488.97
2019-05-12T20:57:56.621Z,99490.29
2019-05-12T21:00:15.957Z,99498.32
2019-05-12T21:02:44.646Z,99504.78
2019-05-12T21:05:17.585Z,99509.00
2019-05-12T21:07:44.065Z,99502.81
2019-05-12T21:10:14.890Z,99505.00
2019-05-12T21:12:46.248Z,99498.09
2019-05-12T21:15:20.365Z,99501.06
2019-05-12T21:17:52.109Z,99505.38
2019-05-12T21:20:16.778Z,99506.05
2019-05-12T21:22:45.653Z,99512.15
2019-05-12T21:25:14.297Z,99514.20
2019-05-12T21:27:47.303Z,99507.38
2019-05-12T21:30:15.183Z,99505.87
2019-05-12T21:32:47.081Z,99503.59
2019-05-12T21:35:21.892Z,99505.03
2019-05-12T21:37:46.313Z,99504.19
2019-05-12T21:40:15.253Z,99494.06
2019-05-12T21:42:44.617Z,99498.38
2019-05-12T21:45:14.565Z,99494.28
2019-05-12T21:47:44.527Z,99497.30
2019-05-12T21:50:14.103Z,99493.02
2019-05-12T21:52:44.524Z,99500.78
2019-05-12T21:55:21.320Z,99500.66
2019-05-12T21:57:44.013Z,99498.67
2019-05-12T22:00:34.717Z,99496.13
2019-05-12T22:03:08.149Z,99493.54
2019-05-12T22:05:47.989Z,99501.36
2019-05-12T22:08:06.399Z,99494.20
2019-05-12T22:10:35.571Z,99496.02
2019-05-12T22:13:07.358Z,99495.19
2019-05-12T22:15:36.093Z,99505.39
2019-05-12T22:18:05.236Z,99503.23
2019-05-12T22:20:35.788Z,99498.30
2019-05-12T22:23:10.126Z,99505.24
2019-05-12T22:25:35.396Z,99514.55
2019-05-12T22:28:09.734Z,99509.41
2019-05-12T22:30:35.145Z,99515.63
2019-05-12T22:33:09.197Z,99511.08
2019-05-12T22:35:34.425Z,99511.27
2019-05-12T22:38:09.405Z,99509.55
2019-05-12T22:40:33.357Z,99511.66
2019-05-12T22:43:04.494Z,99509.23
2019-05-12T22:45:37.797Z,99514.13
2019-05-12T22:48:04.114Z,99507.11
2019-05-12T22:50:35.183Z,99508.42
2019-05-12T22:53:04.418Z,99511.13
2019-05-12T22:55:35.961Z,99515.94
2019-05-12T22:58:04.469Z,99520.11
2019-05-12T23:00:34.332Z,99520.64
2019-05-12T23:03:07.145Z,99522.56
2019-05-12T23:05:33.525Z,99528.11
2019-05-12T23:08:06.294Z,99534.89
2019-05-12T23:10:32.644Z,99533.76
2019-05-12T23:13:02.293Z,99528.77
2019-05-12T23:15:33.541Z,99526.80
2019-05-12T23:18:04.008Z,99527.87
2019-05-12T23:20:33.354Z,99528.97
2019-05-12T23:23:03.914Z,99532.19
2019-05-12T23:25:33.642Z,99538.91
2019-05-12T23:28:06.750Z,99536.61
2019-05-12T23:30:32.936Z,99540.12
2019-05-12T23:33:03.789Z,99546.27
2019-05-12T23:35:34.838Z,99546.94
2019-05-12T23:38:04.483Z,99547.86
2019-05-12T23:40:34.538Z,99544.49
2019-05-12T23:43:04.101Z,99551.64
2019-05-12T23:45:33.899Z,99544.97
2019-05-12T23:48:03.741Z,99548.22
2019-05-12T23:50:32.899Z,99547.05
2019-05-12T23:53:03.683Z,99546.91
2019-05-12T23:55:35.013Z,99552.08
2019-05-12T23:58:04.289Z,99554.34
